sensor_id;sensor_type;location;lat;lon;timestamp;P1;durP1;ratioP1;P2;durP2;ratioP2
23543;SDS011;11950;51.230;4.012;2023-07-16T00:00:11;3.90;;;1.30;;
23543;SDS011;11950;51.230;4.012;2023-07-16T00:02:38;6.93;;;1.63;;
23543;SDS011;11950;51.230;4.012;2023-07-16T00:05:04;5.05;;;1.42;;
23543;SDS011;11950;51.230;4.012;2023-07-16T00:07:31;6.28;;;1.30;;
23543;SDS011;11950;51.230;4.012;2023-07-16T00:09:57;8.18;;;1.63;;
23543;SDS011;11950;51.230;4.012;2023-07-16T00:12:24;9.77;;;1.70;;
23543;SDS011;11950;51.230;4.012;2023-07-16T00:14:50;9.05;;;1.50;;
23543;SDS011;11950;51.230;4.012;2023-07-16T00:17:16;5.68;;;1.60;;
23543;SDS011;11950;51.230;4.012;2023-07-16T00:19:43;5.88;;;1.98;;
23543;SDS011;11950;51.230;4.012;2023-07-16T00:22:09;5.78;;;1.67;;
23543;SDS011;11950;51.230;4.012;2023-07-16T00:24:35;6.47;;;1.60;;
23543;SDS011;11950;51.230;4.012;2023-07-16T00:27:01;6.43;;;1.83;;
23543;SDS011;11950;51.230;4.012;2023-07-16T00:29:30;6.93;;;1.98;;
23543;SDS011;11950;51.230;4.012;2023-07-16T00:31:57;6.05;;;2.00;;
23543;SDS011;11950;51.230;4.012;2023-07-16T00:34:23;8.50;;;2.00;;
23543;SDS011;11950;51.230;4.012;2023-07-16T00:36:50;5.97;;;2.03;;
23543;SDS011;11950;51.230;4.012;2023-07-16T00:39:16;7.93;;;2.20;;
23543;SDS011;11950;51.230;4.012;2023-07-16T00:41:42;4.80;;;1.92;;
23543;SDS011;11950;51.230;4.012;2023-07-16T00:44:08;7.13;;;2.00;;
23543;SDS011;11950;51.230;4.012;2023-07-16T00:46:35;8.38;;;1.70;;
23543;SDS011;11950;51.230;4.012;2023-07-16T00:49:01;8.00;;;1.60;;
23543;SDS011;11950;51.230;4.012;2023-07-16T00:51:28;7.03;;;1.80;;
23543;SDS011;11950;51.230;4.012;2023-07-16T00:53:55;6.68;;;1.80;;
23543;SDS011;11950;51.230;4.012;2023-07-16T00:56:22;8.20;;;2.05;;
23543;SDS011;11950;51.230;4.012;2023-07-16T00:58:48;9.68;;;2.10;;
23543;SDS011;11950;51.230;4.012;2023-07-16T01:01:14;8.18;;;1.77;;
23543;SDS011;11950;51.230;4.012;2023-07-16T01:03:41;5.95;;;2.05;;
23543;SDS011;11950;51.230;4.012;2023-07-16T01:06:19;6.40;;;2.10;;
23543;SDS011;11950;51.230;4.012;2023-07-16T01:08:58;6.97;;;2.60;;
23543;SDS011;11950;51.230;4.012;2023-07-16T01:11:35;6.10;;;1.83;;
23543;SDS011;11950;51.230;4.012;2023-07-16T01:14:03;3.97;;;1.75;;
23543;SDS011;11950;51.230;4.012;2023-07-16T01:16:31;5.50;;;1.95;;
23543;SDS011;11950;51.230;4.012;2023-07-16T01:18:57;5.88;;;1.67;;
23543;SDS011;11950;51.230;4.012;2023-07-16T01:21:24;6.90;;;2.05;;
23543;SDS011;11950;51.230;4.012;2023-07-16T01:29:51;7.50;;;2.22;;
23543;SDS011;11950;51.230;4.012;2023-07-16T01:32:27;5.50;;;1.52;;
23543;SDS011;11950;51.230;4.012;2023-07-16T01:34:55;10.20;;;2.47;;
23543;SDS011;11950;51.230;4.012;2023-07-16T01:37:23;4.68;;;1.70;;
23543;SDS011;11950;51.230;4.012;2023-07-16T01:39:49;7.53;;;2.40;;
23543;SDS011;11950;51.230;4.012;2023-07-16T01:42:16;7.22;;;1.75;;
23543;SDS011;11950;51.230;4.012;2023-07-16T01:44:42;7.35;;;2.08;;
23543;SDS011;11950;51.230;4.012;2023-07-16T01:49:38;5.60;;;2.10;;
23543;SDS011;11950;51.230;4.012;2023-07-16T01:52:06;4.85;;;2.00;;
23543;SDS011;11950;51.230;4.012;2023-07-16T01:54:33;5.35;;;2.00;;
23543;SDS011;11950;51.230;4.012;2023-07-16T01:56:59;6.28;;;2.20;;
23543;SDS011;11950;51.230;4.012;2023-07-16T01:59:25;4.38;;;1.95;;
23543;SDS011;11950;51.230;4.012;2023-07-16T02:01:55;12.55;;;2.58;;
23543;SDS011;11950;51.230;4.012;2023-07-16T02:04:22;12.90;;;2.85;;
23543;SDS011;11950;51.230;4.012;2023-07-16T02:06:48;7.57;;;2.75;;
23543;SDS011;11950;51.230;4.012;2023-07-16T02:09:19;11.13;;;2.53;;
23543;SDS011;11950;51.230;4.012;2023-07-16T02:11:46;5.65;;;2.55;;
23543;SDS011;11950;51.230;4.012;2023-07-16T02:14:13;9.73;;;3.42;;
23543;SDS011;11950;51.230;4.012;2023-07-16T02:16:40;9.45;;;3.03;;
23543;SDS011;11950;51.230;4.012;2023-07-16T02:19:07;11.23;;;3.58;;
23543;SDS011;11950;51.230;4.012;2023-07-16T02:21:34;6.78;;;3.08;;
23543;SDS011;11950;51.230;4.012;2023-07-16T02:24:01;6.10;;;3.10;;
23543;SDS011;11950;51.230;4.012;2023-07-16T02:26:27;8.13;;;3.20;;
23543;SDS011;11950;51.230;4.012;2023-07-16T02:28:53;8.63;;;2.83;;
23543;SDS011;11950;51.230;4.012;2023-07-16T02:31:21;3.65;;;2.85;;
23543;SDS011;11950;51.230;4.012;2023-07-16T02:33:47;10.45;;;3.00;;
23543;SDS011;11950;51.230;4.012;2023-07-16T02:36:13;7.30;;;2.63;;
23543;SDS011;11950;51.230;4.012;2023-07-16T02:38:41;9.00;;;2.95;;
23543;SDS011;11950;51.230;4.012;2023-07-16T02:41:07;6.10;;;2.75;;
23543;SDS011;11950;51.230;4.012;2023-07-16T02:43:34;6.55;;;2.67;;
23543;SDS011;11950;51.230;4.012;2023-07-16T02:46:00;7.95;;;2.45;;
23543;SDS011;11950;51.230;4.012;2023-07-16T02:48:28;6.32;;;2.60;;
23543;SDS011;11950;51.230;4.012;2023-07-16T02:50:54;4.40;;;2.25;;
23543;SDS011;11950;51.230;4.012;2023-07-16T02:53:20;8.10;;;3.05;;
23543;SDS011;11950;51.230;4.012;2023-07-16T02:55:46;8.40;;;3.72;;
23543;SDS011;11950;51.230;4.012;2023-07-16T02:58:13;5.95;;;3.25;;
23543;SDS011;11950;51.230;4.012;2023-07-16T03:00:39;5.63;;;3.05;;
23543;SDS011;11950;51.230;4.012;2023-07-16T03:03:06;7.40;;;2.92;;
23543;SDS011;11950;51.230;4.012;2023-07-16T03:05:32;6.80;;;3.08;;
23543;SDS011;11950;51.230;4.012;2023-07-16T03:07:58;6.57;;;3.28;;
23543;SDS011;11950;51.230;4.012;2023-07-16T03:10:24;5.18;;;2.95;;
23543;SDS011;11950;51.230;4.012;2023-07-16T03:12:52;9.43;;;3.15;;
23543;SDS011;11950;51.230;4.012;2023-07-16T03:15:19;8.48;;;4.10;;
23543;SDS011;11950;51.230;4.012;2023-07-16T03:17:46;7.35;;;3.35;;
23543;SDS011;11950;51.230;4.012;2023-07-16T03:20:12;8.40;;;3.85;;
23543;SDS011;11950;51.230;4.012;2023-07-16T03:22:38;7.28;;;3.70;;
23543;SDS011;11950;51.230;4.012;2023-07-16T03:25:05;7.40;;;3.53;;
23543;SDS011;11950;51.230;4.012;2023-07-16T03:27:32;7.97;;;3.85;;
23543;SDS011;11950;51.230;4.012;2023-07-16T03:30:00;7.55;;;3.60;;
23543;SDS011;11950;51.230;4.012;2023-07-16T03:32:27;10.77;;;3.78;;
23543;SDS011;11950;51.230;4.012;2023-07-16T03:34:53;6.88;;;3.80;;
23543;SDS011;11950;51.230;4.012;2023-07-16T03:37:19;7.75;;;3.17;;
23543;SDS011;11950;51.230;4.012;2023-07-16T03:39:47;6.88;;;3.33;;
23543;SDS011;11950;51.230;4.012;2023-07-16T03:42:14;9.88;;;3.28;;
23543;SDS011;11950;51.230;4.012;2023-07-16T03:44:40;6.78;;;3.58;;
23543;SDS011;11950;51.230;4.012;2023-07-16T03:47:06;6.30;;;3.65;;
23543;SDS011;11950;51.230;4.012;2023-07-16T03:49:33;8.05;;;4.00;;
23543;SDS011;11950;51.230;4.012;2023-07-16T03:51:59;7.00;;;3.58;;
23543;SDS011;11950;51.230;4.012;2023-07-16T03:54:25;9.88;;;3.88;;
23543;SDS011;11950;51.230;4.012;2023-07-16T03:56:51;11.98;;;4.07;;
23543;SDS011;11950;51.230;4.012;2023-07-16T03:59:17;8.80;;;3.72;;
23543;SDS011;11950;51.230;4.012;2023-07-16T04:01:44;6.93;;;3.50;;
23543;SDS011;11950;51.230;4.012;2023-07-16T04:04:11;10.30;;;4.20;;
23543;SDS011;11950;51.230;4.012;2023-07-16T04:06:37;8.25;;;3.75;;
23543;SDS011;11950;51.230;4.012;2023-07-16T04:09:03;8.52;;;3.88;;
23543;SDS011;11950;51.230;4.012;2023-07-16T04:11:30;9.63;;;4.10;;
23543;SDS011;11950;51.230;4.012;2023-07-16T04:13:56;10.32;;;4.10;;
23543;SDS011;11950;51.230;4.012;2023-07-16T04:16:22;10.02;;;4.07;;
23543;SDS011;11950;51.230;4.012;2023-07-16T04:18:49;8.02;;;3.90;;
23543;SDS011;11950;51.230;4.012;2023-07-16T04:21:15;8.07;;;4.57;;
23543;SDS011;11950;51.230;4.012;2023-07-16T04:23:41;8.82;;;4.65;;
23543;SDS011;11950;51.230;4.012;2023-07-16T04:26:07;12.55;;;5.22;;
23543;SDS011;11950;51.230;4.012;2023-07-16T04:28:33;9.57;;;4.85;;
23543;SDS011;11950;51.230;4.012;2023-07-16T04:31:00;7.68;;;4.88;;
23543;SDS011;11950;51.230;4.012;2023-07-16T04:33:26;11.63;;;5.35;;
23543;SDS011;11950;51.230;4.012;2023-07-16T04:35:52;8.50;;;4.30;;
23543;SDS011;11950;51.230;4.012;2023-07-16T04:38:18;8.18;;;4.45;;
23543;SDS011;11950;51.230;4.012;2023-07-16T04:40:45;10.05;;;4.53;;
23543;SDS011;11950;51.230;4.012;2023-07-16T04:43:11;9.20;;;4.65;;
23543;SDS011;11950;51.230;4.012;2023-07-16T04:45:37;11.23;;;4.93;;
23543;SDS011;11950;51.230;4.012;2023-07-16T04:48:05;9.98;;;5.05;;
23543;SDS011;11950;51.230;4.012;2023-07-16T04:50:31;12.20;;;5.68;;
23543;SDS011;11950;51.230;4.012;2023-07-16T04:52:58;9.88;;;4.82;;
23543;SDS011;11950;51.230;4.012;2023-07-16T04:55:24;10.93;;;5.25;;
23543;SDS011;11950;51.230;4.012;2023-07-16T04:57:50;9.73;;;4.47;;
23543;SDS011;11950;51.230;4.012;2023-07-16T05:00:19;10.80;;;5.22;;
23543;SDS011;11950;51.230;4.012;2023-07-16T05:02:46;10.43;;;4.93;;
23543;SDS011;11950;51.230;4.012;2023-07-16T05:05:12;10.02;;;5.25;;
23543;SDS011;11950;51.230;4.012;2023-07-16T05:07:38;11.73;;;5.28;;
23543;SDS011;11950;51.230;4.012;2023-07-16T05:10:04;12.45;;;5.22;;
23543;SDS011;11950;51.230;4.012;2023-07-16T05:12:31;7.50;;;5.45;;
23543;SDS011;11950;51.230;4.012;2023-07-16T05:14:57;10.50;;;5.03;;
23543;SDS011;11950;51.230;4.012;2023-07-16T05:17:23;12.07;;;5.32;;
23543;SDS011;11950;51.230;4.012;2023-07-16T05:19:50;11.07;;;5.80;;
23543;SDS011;11950;51.230;4.012;2023-07-16T05:22:16;8.77;;;5.00;;
23543;SDS011;11950;51.230;4.012;2023-07-16T05:24:42;11.10;;;5.70;;
23543;SDS011;11950;51.230;4.012;2023-07-16T05:27:10;10.55;;;5.22;;
23543;SDS011;11950;51.230;4.012;2023-07-16T05:29:36;13.35;;;5.95;;
23543;SDS011;11950;51.230;4.012;2023-07-16T05:32:02;8.45;;;5.40;;
23543;SDS011;11950;51.230;4.012;2023-07-16T05:34:29;11.43;;;6.07;;
23543;SDS011;11950;51.230;4.012;2023-07-16T05:36:55;11.32;;;5.00;;
23543;SDS011;11950;51.230;4.012;2023-07-16T05:39:22;10.02;;;5.60;;
23543;SDS011;11950;51.230;4.012;2023-07-16T05:41:48;11.43;;;5.45;;
23543;SDS011;11950;51.230;4.012;2023-07-16T05:44:14;10.88;;;5.60;;
23543;SDS011;11950;51.230;4.012;2023-07-16T05:46:41;11.13;;;5.47;;
23543;SDS011;11950;51.230;4.012;2023-07-16T05:49:07;17.48;;;6.22;;
23543;SDS011;11950;51.230;4.012;2023-07-16T05:51:33;11.00;;;5.30;;
23543;SDS011;11950;51.230;4.012;2023-07-16T05:53:59;11.00;;;5.20;;
23543;SDS011;11950;51.230;4.012;2023-07-16T05:56:25;10.07;;;5.80;;
23543;SDS011;11950;51.230;4.012;2023-07-16T05:58:52;8.60;;;5.55;;
23543;SDS011;11950;51.230;4.012;2023-07-16T06:01:18;11.48;;;5.65;;
23543;SDS011;11950;51.230;4.012;2023-07-16T06:03:44;11.07;;;5.78;;
23543;SDS011;11950;51.230;4.012;2023-07-16T06:06:10;10.90;;;5.95;;
23543;SDS011;11950;51.230;4.012;2023-07-16T06:08:37;10.32;;;5.50;;
23543;SDS011;11950;51.230;4.012;2023-07-16T06:11:03;12.93;;;5.60;;
23543;SDS011;11950;51.230;4.012;2023-07-16T06:13:29;9.65;;;5.75;;
23543;SDS011;11950;51.230;4.012;2023-07-16T06:15:55;15.07;;;5.85;;
23543;SDS011;11950;51.230;4.012;2023-07-16T06:18:22;13.68;;;5.63;;
23543;SDS011;11950;51.230;4.012;2023-07-16T06:20:48;12.43;;;5.80;;
23543;SDS011;11950;51.230;4.012;2023-07-16T06:23:16;11.70;;;5.82;;
23543;SDS011;11950;51.230;4.012;2023-07-16T06:25:42;15.32;;;5.93;;
23543;SDS011;11950;51.230;4.012;2023-07-16T06:28:14;13.20;;;6.25;;
23543;SDS011;11950;51.230;4.012;2023-07-16T06:30:41;11.65;;;5.72;;
23543;SDS011;11950;51.230;4.012;2023-07-16T06:33:07;13.68;;;6.00;;
23543;SDS011;11950;51.230;4.012;2023-07-16T06:35:33;10.82;;;5.32;;
23543;SDS011;11950;51.230;4.012;2023-07-16T06:38:00;13.57;;;6.00;;
23543;SDS011;11950;51.230;4.012;2023-07-16T06:40:26;13.73;;;6.07;;
23543;SDS011;11950;51.230;4.012;2023-07-16T06:42:54;13.65;;;5.70;;
23543;SDS011;11950;51.230;4.012;2023-07-16T06:45:20;15.13;;;6.00;;
23543;SDS011;11950;51.230;4.012;2023-07-16T06:47:47;10.23;;;5.22;;
23543;SDS011;11950;51.230;4.012;2023-07-16T06:50:14;13.23;;;6.50;;
23543;SDS011;11950;51.230;4.012;2023-07-16T06:52:40;12.95;;;6.20;;
23543;SDS011;11950;51.230;4.012;2023-07-16T06:55:06;10.88;;;5.78;;
23543;SDS011;11950;51.230;4.012;2023-07-16T06:57:33;12.40;;;6.13;;
23543;SDS011;11950;51.230;4.012;2023-07-16T06:59:59;16.02;;;6.53;;
23543;SDS011;11950;51.230;4.012;2023-07-16T07:02:25;14.43;;;6.07;;
23543;SDS011;11950;51.230;4.012;2023-07-16T07:04:51;11.48;;;6.18;;
23543;SDS011;11950;51.230;4.012;2023-07-16T07:07:18;14.07;;;6.18;;
23543;SDS011;11950;51.230;4.012;2023-07-16T07:09:47;15.02;;;6.57;;
23543;SDS011;11950;51.230;4.012;2023-07-16T07:12:14;10.73;;;5.97;;
23543;SDS011;11950;51.230;4.012;2023-07-16T07:14:40;11.35;;;5.90;;
23543;SDS011;11950;51.230;4.012;2023-07-16T07:17:06;13.32;;;6.07;;
23543;SDS011;11950;51.230;4.012;2023-07-16T07:19:33;12.23;;;5.30;;
23543;SDS011;11950;51.230;4.012;2023-07-16T07:22:00;20.88;;;6.93;;
23543;SDS011;11950;51.230;4.012;2023-07-16T07:24:26;16.20;;;6.72;;
23543;SDS011;11950;51.230;4.012;2023-07-16T07:26:52;10.00;;;5.85;;
23543;SDS011;11950;51.230;4.012;2023-07-16T07:29:18;15.07;;;6.30;;
23543;SDS011;11950;51.230;4.012;2023-07-16T07:31:45;9.55;;;5.53;;
23543;SDS011;11950;51.230;4.012;2023-07-16T07:34:11;11.65;;;5.80;;
23543;SDS011;11950;51.230;4.012;2023-07-16T07:36:37;11.52;;;5.80;;
23543;SDS011;11950;51.230;4.012;2023-07-16T07:39:03;12.93;;;6.35;;
23543;SDS011;11950;51.230;4.012;2023-07-16T07:41:29;15.18;;;6.45;;
23543;SDS011;11950;51.230;4.012;2023-07-16T07:43:56;15.38;;;6.10;;
23543;SDS011;11950;51.230;4.012;2023-07-16T07:46:22;16.05;;;6.60;;
23543;SDS011;11950;51.230;4.012;2023-07-16T07:48:48;15.10;;;6.07;;
23543;SDS011;11950;51.230;4.012;2023-07-16T07:51:14;14.23;;;6.07;;
23543;SDS011;11950;51.230;4.012;2023-07-16T07:53:41;10.07;;;5.18;;
23543;SDS011;11950;51.230;4.012;2023-07-16T07:56:07;17.17;;;6.47;;
23543;SDS011;11950;51.230;4.012;2023-07-16T07:58:33;11.35;;;5.88;;
23543;SDS011;11950;51.230;4.012;2023-07-16T08:01:04;9.48;;;5.40;;
23543;SDS011;11950;51.230;4.012;2023-07-16T08:03:31;10.00;;;5.70;;
23543;SDS011;11950;51.230;4.012;2023-07-16T08:05:57;14.00;;;5.45;;
23543;SDS011;11950;51.230;4.012;2023-07-16T08:08:23;13.70;;;5.78;;
23543;SDS011;11950;51.230;4.012;2023-07-16T08:10:50;13.60;;;6.05;;
23543;SDS011;11950;51.230;4.012;2023-07-16T08:13:16;10.80;;;5.80;;
23543;SDS011;11950;51.230;4.012;2023-07-16T08:15:42;13.45;;;5.18;;
23543;SDS011;11950;51.230;4.012;2023-07-16T08:18:08;14.15;;;5.72;;
23543;SDS011;11950;51.230;4.012;2023-07-16T08:20:38;13.68;;;6.22;;
23543;SDS011;11950;51.230;4.012;2023-07-16T08:23:06;12.15;;;5.57;;
23543;SDS011;11950;51.230;4.012;2023-07-16T08:25:32;11.05;;;5.57;;
23543;SDS011;11950;51.230;4.012;2023-07-16T08:27:59;14.27;;;6.03;;
23543;SDS011;11950;51.230;4.012;2023-07-16T08:30:27;9.95;;;4.78;;
23543;SDS011;11950;51.230;4.012;2023-07-16T08:32:53;10.70;;;5.57;;
23543;SDS011;11950;51.230;4.012;2023-07-16T08:35:19;11.38;;;5.07;;
23543;SDS011;11950;51.230;4.012;2023-07-16T08:37:45;13.43;;;5.25;;
23543;SDS011;11950;51.230;4.012;2023-07-16T08:40:12;12.95;;;5.57;;
23543;SDS011;11950;51.230;4.012;2023-07-16T08:42:39;10.10;;;5.25;;
23543;SDS011;11950;51.230;4.012;2023-07-16T08:45:06;10.57;;;5.20;;
23543;SDS011;11950;51.230;4.012;2023-07-16T08:47:35;10.18;;;4.72;;
23543;SDS011;11950;51.230;4.012;2023-07-16T08:50:02;10.93;;;5.72;;
23543;SDS011;11950;51.230;4.012;2023-07-16T08:52:29;9.20;;;5.30;;
23543;SDS011;11950;51.230;4.012;2023-07-16T08:54:55;11.63;;;5.18;;
23543;SDS011;11950;51.230;4.012;2023-07-16T08:57:22;9.05;;;4.65;;
23543;SDS011;11950;51.230;4.012;2023-07-16T08:59:49;10.75;;;5.38;;
23543;SDS011;11950;51.230;4.012;2023-07-16T09:02:19;9.10;;;4.57;;
23543;SDS011;11950;51.230;4.012;2023-07-16T09:04:47;9.70;;;4.55;;
23543;SDS011;11950;51.230;4.012;2023-07-16T09:07:14;12.35;;;5.25;;
23543;SDS011;11950;51.230;4.012;2023-07-16T09:09:41;10.85;;;5.25;;
23543;SDS011;11950;51.230;4.012;2023-07-16T09:12:16;10.50;;;5.15;;
23543;SDS011;11950;51.230;4.012;2023-07-16T09:14:43;8.77;;;4.60;;
23543;SDS011;11950;51.230;4.012;2023-07-16T09:17:09;11.27;;;4.38;;
23543;SDS011;11950;51.230;4.012;2023-07-16T09:19:35;10.95;;;5.15;;
23543;SDS011;11950;51.230;4.012;2023-07-16T09:22:02;6.90;;;4.57;;
23543;SDS011;11950;51.230;4.012;2023-07-16T09:24:28;11.63;;;5.18;;
23543;SDS011;11950;51.230;4.012;2023-07-16T09:26:55;9.02;;;4.95;;
23543;SDS011;11950;51.230;4.012;2023-07-16T09:29:21;9.38;;;5.07;;
23543;SDS011;11950;51.230;4.012;2023-07-16T09:31:51;11.23;;;4.93;;
23543;SDS011;11950;51.230;4.012;2023-07-16T09:34:21;10.30;;;5.10;;
23543;SDS011;11950;51.230;4.012;2023-07-16T09:36:48;11.20;;;5.30;;
23543;SDS011;11950;51.230;4.012;2023-07-16T09:39:16;11.93;;;5.45;;
23543;SDS011;11950;51.230;4.012;2023-07-16T09:41:44;9.43;;;4.80;;
23543;SDS011;11950;51.230;4.012;2023-07-16T09:44:13;13.77;;;5.35;;
23543;SDS011;11950;51.230;4.012;2023-07-16T09:46:40;11.43;;;5.13;;
23543;SDS011;11950;51.230;4.012;2023-07-16T09:49:07;13.60;;;5.43;;
23543;SDS011;11950;51.230;4.012;2023-07-16T09:51:35;9.55;;;5.32;;
23543;SDS011;11950;51.230;4.012;2023-07-16T09:54:02;10.80;;;5.40;;
23543;SDS011;11950;51.230;4.012;2023-07-16T09:56:45;8.68;;;4.88;;
23543;SDS011;11950;51.230;4.012;2023-07-16T09:59:16;12.65;;;6.10;;
23543;SDS011;11950;51.230;4.012;2023-07-16T10:04:13;11.35;;;4.57;;
23543;SDS011;11950;51.230;4.012;2023-07-16T10:06:54;9.98;;;4.47;;
23543;SDS011;11950;51.230;4.012;2023-07-16T10:09:37;7.88;;;3.70;;
23543;SDS011;11950;51.230;4.012;2023-07-16T10:14:48;4.20;;;2.30;;
23543;SDS011;11950;51.230;4.012;2023-07-16T10:19:55;3.13;;;1.35;;
23543;SDS011;11950;51.230;4.012;2023-07-16T10:22:33;3.07;;;1.23;;
23543;SDS011;11950;51.230;4.012;2023-07-16T10:25:07;2.05;;;1.17;;
23543;SDS011;11950;51.230;4.012;2023-07-16T10:27:34;2.65;;;1.20;;
23543;SDS011;11950;51.230;4.012;2023-07-16T10:30:01;3.13;;;1.30;;
23543;SDS011;11950;51.230;4.012;2023-07-16T10:32:30;4.80;;;1.00;;
23543;SDS011;11950;51.230;4.012;2023-07-16T10:34:57;3.60;;;1.10;;
23543;SDS011;11950;51.230;4.012;2023-07-16T10:37:24;2.83;;;1.30;;
23543;SDS011;11950;51.230;4.012;2023-07-16T10:39:52;2.67;;;1.10;;
23543;SDS011;11950;51.230;4.012;2023-07-16T10:42:20;2.13;;;1.10;;
23543;SDS011;11950;51.230;4.012;2023-07-16T10:44:51;2.42;;;1.00;;
23543;SDS011;11950;51.230;4.012;2023-07-16T10:47:19;3.33;;;1.23;;
23543;SDS011;11950;51.230;4.012;2023-07-16T10:49:48;2.25;;;1.00;;
23543;SDS011;11950;51.230;4.012;2023-07-16T10:52:15;4.10;;;1.00;;
23543;SDS011;11950;51.230;4.012;2023-07-16T10:54:41;2.40;;;1.00;;
23543;SDS011;11950;51.230;4.012;2023-07-16T10:57:08;2.78;;;0.90;;
23543;SDS011;11950;51.230;4.012;2023-07-16T10:59:36;2.88;;;0.90;;
23543;SDS011;11950;51.230;4.012;2023-07-16T11:02:05;2.42;;;0.88;;
23543;SDS011;11950;51.230;4.012;2023-07-16T11:04:36;1.90;;;0.90;;
23543;SDS011;11950;51.230;4.012;2023-07-16T11:07:09;1.42;;;0.90;;
23543;SDS011;11950;51.230;4.012;2023-07-16T11:09:41;1.02;;;0.68;;
23543;SDS011;11950;51.230;4.012;2023-07-16T11:14:35;2.40;;;1.00;;
23543;SDS011;11950;51.230;4.012;2023-07-16T11:17:07;3.50;;;0.88;;
23543;SDS011;11950;51.230;4.012;2023-07-16T11:19:35;2.50;;;0.60;;
23543;SDS011;11950;51.230;4.012;2023-07-16T11:22:02;2.70;;;0.70;;
23543;SDS011;11950;51.230;4.012;2023-07-16T11:24:36;4.07;;;0.88;;
23543;SDS011;11950;51.230;4.012;2023-07-16T11:27:20;5.38;;;1.27;;
23543;SDS011;11950;51.230;4.012;2023-07-16T11:29:54;3.08;;;1.10;;
23543;SDS011;11950;51.230;4.012;2023-07-16T11:33:09;4.35;;;1.10;;
23543;SDS011;11950;51.230;4.012;2023-07-16T11:35:18;3.95;;;0.90;;
23543;SDS011;11950;51.230;4.012;2023-07-16T11:37:46;6.80;;;3.85;;
23543;SDS011;11950;51.230;4.012;2023-07-16T11:40:16;4.18;;;1.33;;
23543;SDS011;11950;51.230;4.012;2023-07-16T11:42:44;5.47;;;1.60;;
23543;SDS011;11950;51.230;4.012;2023-07-16T11:45:17;4.55;;;1.50;;
23543;SDS011;11950;51.230;4.012;2023-07-16T11:47:48;5.20;;;1.83;;
23543;SDS011;11950;51.230;4.012;2023-07-16T11:50:15;3.85;;;1.13;;
23543;SDS011;11950;51.230;4.012;2023-07-16T11:52:41;5.90;;;1.30;;
23543;SDS011;11950;51.230;4.012;2023-07-16T11:55:08;5.45;;;1.30;;
23543;SDS011;11950;51.230;4.012;2023-07-16T11:57:34;3.53;;;1.10;;
23543;SDS011;11950;51.230;4.012;2023-07-16T12:00:02;4.30;;;1.10;;
23543;SDS011;11950;51.230;4.012;2023-07-16T12:02:30;2.92;;;1.20;;
23543;SDS011;11950;51.230;4.012;2023-07-16T12:04:56;3.53;;;1.20;;
23543;SDS011;11950;51.230;4.012;2023-07-16T12:07:36;1.98;;;1.00;;
23543;SDS011;11950;51.230;4.012;2023-07-16T12:10:03;3.88;;;1.20;;
23543;SDS011;11950;51.230;4.012;2023-07-16T12:12:31;1.95;;;0.98;;
23543;SDS011;11950;51.230;4.012;2023-07-16T12:14:58;1.70;;;0.90;;
23543;SDS011;11950;51.230;4.012;2023-07-16T12:17:26;2.50;;;1.20;;
23543;SDS011;11950;51.230;4.012;2023-07-16T12:19:52;3.50;;;1.10;;
23543;SDS011;11950;51.230;4.012;2023-07-16T12:22:18;3.60;;;1.17;;
23543;SDS011;11950;51.230;4.012;2023-07-16T12:24:45;3.20;;;1.60;;
23543;SDS011;11950;51.230;4.012;2023-07-16T12:27:13;3.72;;;1.58;;
23543;SDS011;11950;51.230;4.012;2023-07-16T12:29:40;4.40;;;1.30;;
23543;SDS011;11950;51.230;4.012;2023-07-16T12:32:06;4.45;;;1.60;;
23543;SDS011;11950;51.230;4.012;2023-07-16T12:34:34;3.30;;;1.20;;
23543;SDS011;11950;51.230;4.012;2023-07-16T12:37:00;4.35;;;1.38;;
23543;SDS011;11950;51.230;4.012;2023-07-16T12:39:26;2.67;;;1.70;;
23543;SDS011;11950;51.230;4.012;2023-07-16T12:41:54;4.13;;;1.48;;
23543;SDS011;11950;51.230;4.012;2023-07-16T12:44:20;4.68;;;1.40;;
23543;SDS011;11950;51.230;4.012;2023-07-16T12:46:46;6.72;;;1.60;;
23543;SDS011;11950;51.230;4.012;2023-07-16T12:49:12;5.22;;;1.60;;
23543;SDS011;11950;51.230;4.012;2023-07-16T12:51:39;5.45;;;1.65;;
23543;SDS011;11950;51.230;4.012;2023-07-16T12:54:05;4.82;;;1.30;;
23543;SDS011;11950;51.230;4.012;2023-07-16T12:56:31;2.67;;;1.50;;
23543;SDS011;11950;51.230;4.012;2023-07-16T12:58:58;4.57;;;1.60;;
23543;SDS011;11950;51.230;4.012;2023-07-16T13:01:24;4.13;;;1.48;;
23543;SDS011;11950;51.230;4.012;2023-07-16T13:03:50;6.35;;;1.42;;
23543;SDS011;11950;51.230;4.012;2023-07-16T13:06:16;4.57;;;1.30;;
23543;SDS011;11950;51.230;4.012;2023-07-16T13:08:43;4.05;;;1.58;;
23543;SDS011;11950;51.230;4.012;2023-07-16T13:11:09;1.88;;;1.15;;
23543;SDS011;11950;51.230;4.012;2023-07-16T13:13:36;2.03;;;1.00;;
23543;SDS011;11950;51.230;4.012;2023-07-16T13:16:03;3.75;;;1.42;;
23543;SDS011;11950;51.230;4.012;2023-07-16T13:18:29;4.28;;;1.00;;
23543;SDS011;11950;51.230;4.012;2023-07-16T13:20:55;3.97;;;1.20;;
23543;SDS011;11950;51.230;4.012;2023-07-16T13:23:22;3.35;;;1.15;;
23543;SDS011;11950;51.230;4.012;2023-07-16T13:25:48;2.50;;;1.20;;
23543;SDS011;11950;51.230;4.012;2023-07-16T13:28:17;3.50;;;1.30;;
23543;SDS011;11950;51.230;4.012;2023-07-16T13:30:43;4.20;;;1.40;;
23543;SDS011;11950;51.230;4.012;2023-07-16T13:33:09;5.57;;;1.50;;
23543;SDS011;11950;51.230;4.012;2023-07-16T13:35:37;4.15;;;1.08;;
23543;SDS011;11950;51.230;4.012;2023-07-16T13:38:03;7.00;;;1.50;;
23543;SDS011;11950;51.230;4.012;2023-07-16T13:40:29;3.85;;;1.67;;
23543;SDS011;11950;51.230;4.012;2023-07-16T13:42:55;4.55;;;1.23;;
23543;SDS011;11950;51.230;4.012;2023-07-16T13:45:22;5.03;;;1.30;;
23543;SDS011;11950;51.230;4.012;2023-07-16T13:47:49;3.13;;;1.20;;
23543;SDS011;11950;51.230;4.012;2023-07-16T13:50:20;3.42;;;1.30;;
23543;SDS011;11950;51.230;4.012;2023-07-16T13:52:46;4.38;;;1.40;;
23543;SDS011;11950;51.230;4.012;2023-07-16T13:55:12;4.35;;;1.45;;
23543;SDS011;11950;51.230;4.012;2023-07-16T13:57:39;3.63;;;1.73;;
23543;SDS011;11950;51.230;4.012;2023-07-16T14:00:05;2.13;;;1.10;;
23543;SDS011;11950;51.230;4.012;2023-07-16T14:02:35;4.03;;;1.40;;
23543;SDS011;11950;51.230;4.012;2023-07-16T14:05:02;3.47;;;0.98;;
23543;SDS011;11950;51.230;4.012;2023-07-16T14:07:30;2.40;;;1.50;;
23543;SDS011;11950;51.230;4.012;2023-07-16T14:09:56;3.20;;;1.38;;
23543;SDS011;11950;51.230;4.012;2023-07-16T14:12:22;6.90;;;1.20;;
23543;SDS011;11950;51.230;4.012;2023-07-16T14:14:48;3.88;;;1.30;;
23543;SDS011;11950;51.230;4.012;2023-07-16T14:17:15;4.97;;;1.20;;
23543;SDS011;11950;51.230;4.012;2023-07-16T14:19:41;5.97;;;1.10;;
23543;SDS011;11950;51.230;4.012;2023-07-16T14:22:07;2.65;;;1.42;;
23543;SDS011;11950;51.230;4.012;2023-07-16T14:24:37;2.80;;;1.10;;
23543;SDS011;11950;51.230;4.012;2023-07-16T14:27:03;2.60;;;1.17;;
23543;SDS011;11950;51.230;4.012;2023-07-16T14:29:32;3.95;;;1.30;;
23543;SDS011;11950;51.230;4.012;2023-07-16T14:31:58;2.30;;;1.00;;
23543;SDS011;11950;51.230;4.012;2023-07-16T14:34:25;2.00;;;1.02;;
23543;SDS011;11950;51.230;4.012;2023-07-16T14:36:52;1.73;;;1.05;;
23543;SDS011;11950;51.230;4.012;2023-07-16T14:39:19;2.47;;;1.10;;
23543;SDS011;11950;51.230;4.012;2023-07-16T14:41:46;3.75;;;1.20;;
23543;SDS011;11950;51.230;4.012;2023-07-16T14:44:12;4.45;;;1.42;;
23543;SDS011;11950;51.230;4.012;2023-07-16T14:46:39;3.58;;;1.10;;
23543;SDS011;11950;51.230;4.012;2023-07-16T14:49:05;3.70;;;1.58;;
23543;SDS011;11950;51.230;4.012;2023-07-16T14:51:32;1.83;;;1.00;;
23543;SDS011;11950;51.230;4.012;2023-07-16T14:54:05;3.00;;;1.30;;
23543;SDS011;11950;51.230;4.012;2023-07-16T14:56:32;1.65;;;1.30;;
23543;SDS011;11950;51.230;4.012;2023-07-16T14:58:59;3.85;;;1.25;;
23543;SDS011;11950;51.230;4.012;2023-07-16T15:01:25;3.65;;;1.30;;